Time;durP1;ratioP1;P1;durP2;ratioP2;P2;SDS_P1;SDS_P2;PMS_P1;PMS_P2;Temp;Humidity;BMP_temperature;BMP_pressure;BME280_temperature;BME280_humidity;BME280_pressure;Samples;Min_cycle;Max_cycle;Signal;HPM_P1;HPM_P2
2021/07/16 00:01:41;;;;;;;35.15;15.15;;;;;;;15.72;100.00;101943.22;5064874;28;20040;-74
2021/07/16 00:04:06;;;;;;;34.05;14.27;;;;;;;15.75;100.00;101946.78;5063231;28;20017;-73
2021/07/16 00:06:31;;;;;;;34.70;15.48;;;;;;;15.73;100.00;101955.66;5065761;28;20414;-72
2021/07/16 00:08:57;;;;;;;32.92;15.57;;;;;;;15.69;100.00;101942.31;5062237;28;20225;-72
2021/07/16 00:11:23;;;;;;;36.10;15.18;;;;;;;15.67;100.00;101938.78;5065079;28;20020;-70
2021/07/16 00:13:48;;;;;;;36.45;15.85;;;;;;;15.67;100.00;101938.78;5063620;28;20047;-70
2021/07/16 00:16:14;;;;;;;33.95;15.55;;;;;;;15.68;100.00;101945.00;5064035;28;20021;-74
2021/07/16 00:18:39;;;;;;;36.03;15.52;;;;;;;15.67;100.00;101941.44;5046444;28;20387;-75
2021/07/16 00:21:04;;;;;;;36.83;15.50;;;;;;;15.68;100.00;101940.56;5062356;28;20021;-76
2021/07/16 00:23:30;;;;;;;33.70;14.52;;;;;;;15.67;100.00;101941.44;5065364;28;20021;-72
2021/07/16 00:25:56;;;;;;;34.88;15.35;;;;;;;15.68;100.00;101940.56;5061865;28;20116;-72
2021/07/16 00:28:22;;;;;;;39.70;15.52;;;;;;;15.68;100.00;101945.91;5064782;28;20484;-76
2021/07/16 00:30:48;;;;;;;31.67;14.50;;;;;;;15.68;100.00;101947.66;5063397;28;20029;-73
2021/07/16 00:33:13;;;;;;;36.38;14.88;;;;;;;15.69;100.00;101946.78;5063420;28;20357;-68
2021/07/16 00:35:39;;;;;;;33.97;14.93;;;;;;;15.69;100.00;101949.44;5064381;28;20111;-72
2021/07/16 00:38:04;;;;;;;37.05;15.48;;;;;;;15.67;100.00;101944.13;5061111;28;20040;-72
2021/07/16 00:40:29;;;;;;;32.88;15.27;;;;;;;15.68;100.00;101952.97;5065451;28;20482;-75
2021/07/16 00:42:55;;;;;;;35.63;15.63;;;;;;;15.68;100.00;101952.97;5061939;28;20082;-75
2021/07/16 00:45:22;;;;;;;39.00;16.25;;;;;;;15.66;100.00;101952.97;5064146;28;20518;-74
2021/07/16 00:47:48;;;;;;;35.63;15.52;;;;;;;15.66;100.00;101952.09;5063024;28;20109;-75
2021/07/16 00:50:21;;;;;;;34.67;15.73;;;;;;;15.68;100.00;101952.97;5062943;28;20075;-73
2021/07/16 00:52:47;;;;;;;35.42;15.65;;;;;;;15.66;100.00;101954.78;5062623;28;20032;-74
2021/07/16 00:55:14;;;;;;;34.85;15.57;;;;;;;15.63;100.00;101954.78;5062921;28;20017;-68
2021/07/16 00:57:40;;;;;;;34.85;15.77;;;;;;;15.63;100.00;101954.78;5064094;28;20037;-72
2021/07/16 01:00:10;;;;;;;33.70;15.60;;;;;;;15.64;100.00;101968.09;5061644;28;20163;-77
2021/07/16 01:02:36;;;;;;;33.92;15.75;;;;;;;15.63;100.00;101960.97;5064142;28;20032;-70
2021/07/16 01:05:04;;;;;;;34.00;15.30;;;;;;;15.64;100.00;101956.53;5062756;28;20031;-75
2021/07/16 01:07:29;;;;;;;35.58;15.32;;;;;;;15.58;100.00;101965.44;5063498;28;20523;-70
2021/07/16 01:09:55;;;;;;;35.22;15.98;;;;;;;15.61;100.00;101962.78;5065015;28;20067;-75
2021/07/16 01:12:22;;;;;;;33.80;15.13;;;;;;;15.61;100.00;101959.19;5062368;28;20032;-73
2021/07/16 01:14:48;;;;;;;34.45;15.77;;;;;;;15.60;100.00;101960.97;5063088;28;20112;-70
2021/07/16 01:17:14;;;;;;;34.35;16.05;;;;;;;15.59;100.00;101964.53;5063200;28;20056;-62
2021/07/16 01:19:55;;;;;;;36.63;16.13;;;;;;;15.62;100.00;101959.19;5062124;28;20033;-62
2021/07/16 01:22:23;;;;;;;36.47;16.13;;;;;;;15.58;100.00;101968.09;5061863;28;20028;-62
2021/07/16 01:24:49;;;;;;;32.05;14.95;;;;;;;15.58;100.00;101956.53;5063337;28;20029;-63
2021/07/16 01:27:18;;;;;;;31.92;14.30;;;;;;;15.62;100.00;101960.97;5062925;28;20361;-63
2021/07/16 01:29:43;;;;;;;34.25;14.65;;;;;;;15.61;100.00;101957.44;5044335;28;20033;-63
2021/07/16 01:32:09;;;;;;;34.42;16.48;;;;;;;15.59;100.00;101953.88;5063304;28;20115;-64
2021/07/16 01:34:34;;;;;;;36.80;16.40;;;;;;;15.59;100.00;101959.19;5060977;28;20032;-67
2021/07/16 01:37:00;;;;;;;33.55;15.15;;;;;;;15.59;100.00;101959.19;5064249;28;20025;-63
2021/07/16 01:39:25;;;;;;;34.83;15.70;;;;;;;15.59;100.00;101956.53;5060991;28;20067;-63
2021/07/16 01:41:50;;;;;;;36.85;15.20;;;;;;;15.58;100.00;101954.78;5063328;28;20029;-64
2021/07/16 01:44:16;;;;;;;34.00;15.38;;;;;;;15.55;100.00;101967.19;5044626;28;20017;-66
2021/07/16 01:46:42;;;;;;;36.58;15.57;;;;;;;15.57;100.00;101966.31;5061788;28;20104;-64
2021/07/16 01:49:07;;;;;;;34.92;15.57;;;;;;;15.58;100.00;101962.78;5065868;28;20028;-68
2021/07/16 01:51:33;;;;;;;37.75;16.10;;;;;;;15.56;100.00;101959.19;5064530;28;20036;-63
2021/07/16 01:53:58;;;;;;;34.30;16.20;;;;;;;15.57;100.00;101968.09;5064982;28;20017;-62
2021/07/16 01:56:24;;;;;;;37.70;15.60;;;;;;;15.57;100.00;101960.97;5049757;28;20496;-63
2021/07/16 01:58:49;;;;;;;38.00;16.23;;;;;;;15.57;100.00;101968.09;5066141;28;20033;-66
2021/07/16 02:01:15;;;;;;;35.67;15.73;;;;;;;15.57;100.00;101960.09;5066277;28;20491;-63
2021/07/16 02:03:43;;;;;;;33.85;15.50;;;;;;;15.55;100.00;101968.06;5067429;28;20028;-64
2021/07/16 02:06:09;;;;;;;35.72;15.55;;;;;;;15.53;100.00;101961.84;5065223;28;20047;-63
2021/07/16 02:08:34;;;;;;;36.63;14.57;;;;;;;15.59;100.00;101958.31;5068104;28;20024;-65
2021/07/16 02:10:59;;;;;;;35.25;14.80;;;;;;;15.56;100.00;101960.97;5065495;28;20025;-64
2021/07/16 02:13:25;;;;;;;38.15;15.90;;;;;;;15.53;100.00;101964.53;5068621;28;20364;-72
2021/07/16 02:15:51;;;;;;;35.47;15.38;;;;;;;15.52;100.00;101966.31;5066261;28;20395;-64
2021/07/16 02:18:18;;;;;;;36.92;15.55;;;;;;;15.51;100.00;101968.97;5067449;28;20100;-65
2021/07/16 02:20:43;;;;;;;36.63;15.60;;;;;;;15.51;100.00;101963.66;5067936;28;20021;-66
2021/07/16 02:23:12;;;;;;;37.50;16.45;;;;;;;15.51;100.00;101972.53;5066819;28;20067;-66
2021/07/16 02:25:37;;;;;;;37.20;15.32;;;;;;;15.51;100.00;101967.19;5068506;28;20035;-65
2021/07/16 02:28:08;;;;;;;36.20;15.27;;;;;;;15.53;100.00;101969.84;5065212;28;20024;-62
2021/07/16 02:30:34;;;;;;;37.95;15.35;;;;;;;15.54;100.00;101974.31;5065324;28;20025;-63
2021/07/16 02:33:00;;;;;;;35.47;16.17;;;;;;;15.55;100.00;101964.53;5065185;28;20467;-68
2021/07/16 02:35:27;;;;;;;39.22;16.55;;;;;;;15.52;100.00;101976.06;5068743;28;20025;-63
2021/07/16 02:37:52;;;;;;;36.17;16.38;;;;;;;15.51;100.00;101975.19;5066868;28;20046;-69
2021/07/16 02:40:19;;;;;;;36.17;16.63;;;;;;;15.49;100.00;101979.63;5079285;28;20080;-61
2021/07/16 02:42:45;;;;;;;40.10;17.13;;;;;;;15.46;100.00;101981.38;5076214;28;20371;-62
2021/07/16 02:45:16;;;;;;;41.78;18.13;;;;;;;15.43;100.00;101984.94;5065118;28;20025;-62
2021/07/16 02:47:42;;;;;;;38.65;16.70;;;;;;;15.44;100.00;101985.84;5066481;28;20029;-62
2021/07/16 02:50:10;;;;;;;38.85;17.58;;;;;;;15.43;100.00;101992.03;5064246;28;20426;-62
2021/07/16 02:52:36;;;;;;;40.38;16.95;;;;;;;15.45;100.00;101991.16;5067029;28;20032;-61
2021/07/16 02:55:03;;;;;;;38.65;17.75;;;;;;;15.40;100.00;101989.38;5063912;28;20110;-62
2021/07/16 02:57:29;;;;;;;41.72;18.52;;;;;;;15.37;100.00;101986.69;5066817;28;20052;-62
2021/07/16 02:59:54;;;;;;;43.38;17.92;;;;;;;15.39;100.00;101982.25;5063083;28;20035;-62
2021/07/16 03:02:19;;;;;;;41.50;18.35;;;;;;;15.36;100.00;101987.59;5066091;28;20032;-62
2021/07/16 03:04:46;;;;;;;39.00;17.95;;;;;;;15.34;100.00;101991.13;5065634;28;20352;-62
2021/07/16 03:07:12;;;;;;;41.30;18.23;;;;;;;15.33;100.00;101989.38;5064613;28;20454;-62
2021/07/16 03:09:37;;;;;;;46.13;17.90;;;;;;;15.30;100.00;101983.13;5066322;28;20214;-62
2021/07/16 03:12:04;;;;;;;46.70;18.40;;;;;;;15.25;100.00;101991.09;5063305;28;20052;-63
2021/07/16 03:14:29;;;;;;;40.75;17.10;;;;;;;15.26;100.00;101987.56;5063426;28;20421;-62
2021/07/16 03:16:54;;;;;;;40.75;17.30;;;;;;;15.27;100.00;101980.47;5066110;28;20016;-62
2021/07/16 03:19:20;;;;;;;45.08;17.73;;;;;;;15.29;100.00;101984.00;5064386;28;20027;-63
2021/07/16 03:21:45;;;;;;;39.00;17.65;;;;;;;15.23;100.00;101987.56;5064662;28;20112;-62
2021/07/16 03:24:11;;;;;;;39.28;17.67;;;;;;;15.24;100.00;101980.44;5065650;28;20032;-62
2021/07/16 03:26:38;;;;;;;40.50;16.65;;;;;;;15.22;100.00;101985.78;5063369;28;20025;-62
2021/07/16 03:29:03;;;;;;;42.08;18.27;;;;;;;15.21;100.00;101983.97;5066679;28;20024;-62
2021/07/16 03:31:29;;;;;;;39.05;17.20;;;;;;;15.23;100.00;101987.56;5063060;28;20111;-62
2021/07/16 03:33:54;;;;;;;45.03;18.83;;;;;;;15.17;100.00;101987.50;5065488;28;20522;-62
2021/07/16 03:36:19;;;;;;;43.53;18.27;;;;;;;15.17;100.00;101987.50;5064284;28;20074;-63
2021/07/16 03:38:47;;;;;;;43.45;18.67;;;;;;;15.17;100.00;101984.84;5064500;28;20045;-62
2021/07/16 03:41:12;;;;;;;40.00;17.63;;;;;;;15.15;100.00;101983.97;5065402;28;20031;-62
2021/07/16 03:43:37;;;;;;;45.97;18.58;;;;;;;15.13;100.00;101980.41;5063420;28;20029;-63
2021/07/16 03:46:03;;;;;;;42.33;17.85;;;;;;;15.16;100.00;101986.63;5066216;28;20107;-62
2021/07/16 03:48:29;;;;;;;41.42;17.40;;;;;;;15.14;100.00;101976.84;5062828;28;20048;-62
2021/07/16 03:50:55;;;;;;;39.80;17.85;;;;;;;15.09;100.00;101979.50;5065567;28;20036;-62
2021/07/16 03:53:20;;;;;;;43.47;17.85;;;;;;;15.08;100.00;101979.50;5063648;28;20036;-62
2021/07/16 03:55:45;;;;;;;40.22;17.52;;;;;;;15.04;100.00;101978.59;5064151;28;20060;-62
2021/07/16 03:58:10;;;;;;;45.78;17.83;;;;;;;15.11;100.00;101983.06;5046766;28;20391;-62
2021/07/16 04:00:36;;;;;;;40.40;17.42;;;;;;;15.07;100.00;101983.03;5062640;28;20021;-62
2021/07/16 04:03:03;;;;;;;46.95;17.55;;;;;;;15.03;100.00;101990.16;5066070;28;20028;-63
2021/07/16 04:05:31;;;;;;;41.60;17.88;;;;;;;14.98;100.00;101991.88;5062409;28;20021;-63
2021/07/16 04:08:06;;;;;;;38.10;17.15;;;;;;;14.99;100.00;101994.56;5065095;28;20021;-62
2021/07/16 04:10:33;;;;;;;40.63;16.58;;;;;;;14.95;100.00;101994.53;5062184;28;20108;-62
2021/07/16 04:13:03;;;;;;;40.95;16.98;;;;;;;14.95;100.00;102014.06;5065509;28;20028;-62
2021/07/16 04:15:28;;;;;;;40.75;17.15;;;;;;;14.97;100.00;102014.09;5062202;28;20029;-63
2021/07/16 04:17:55;;;;;;;42.05;16.30;;;;;;;14.94;100.00;102022.03;5064703;28;20032;-63
2021/07/16 04:20:20;;;;;;;43.90;17.88;;;;;;;14.93;100.00;102028.25;5063693;28;20020;-62
2021/07/16 04:22:46;;;;;;;41.65;16.58;;;;;;;14.93;100.00;102023.81;5063582;28;20077;-63
2021/07/16 04:25:16;;;;;;;45.40;17.15;;;;;;;14.95;100.00;102024.69;5064390;28;20495;-62
2021/07/16 04:27:42;;;;;;;40.17;16.90;;;;;;;14.98;100.00;102021.16;5062927;28;20021;-63
2021/07/16 04:30:09;;;;;;;40.88;16.00;;;;;;;15.01;100.00;102028.28;5065127;28;20024;-63
2021/07/16 04:32:34;;;;;;;42.47;16.98;;;;;;;15.01;100.00;102029.16;5061953;28;20379;-63
2021/07/16 04:35:00;;;;;;;45.70;17.25;;;;;;;14.97;100.00;102028.28;5065348;28;20050;-62
2021/07/16 04:37:25;;;;;;;41.25;16.85;;;;;;;14.97;100.00;102036.28;5062160;28;20471;-63
2021/07/16 04:39:50;;;;;;;40.05;16.35;;;;;;;14.94;100.00;102025.59;5064049;28;20128;-63
2021/07/16 04:42:16;;;;;;;39.15;17.30;;;;;;;14.95;100.00;102030.03;5064029;28;20016;-63
2021/07/16 04:44:41;;;;;;;41.45;17.95;;;;;;;14.93;100.00;102026.47;5062483;28;20353;-63
2021/07/16 04:47:07;;;;;;;41.15;16.80;;;;;;;14.90;100.00;102023.81;5064858;28;20498;-63
2021/07/16 04:49:33;;;;;;;38.92;16.33;;;;;;;14.92;100.00;102032.69;5061489;28;20040;-63
2021/07/16 04:52:00;;;;;;;43.08;17.45;;;;;;;14.86;100.00;102024.66;5064681;28;20106;-63
2021/07/16 04:54:25;;;;;;;45.20;17.73;;;;;;;14.83;100.00;102043.28;5062513;28;20107;-63
2021/07/16 04:56:50;;;;;;;40.30;16.48;;;;;;;14.87;100.00;102031.78;5063437;28;20463;-67
2021/07/16 04:59:16;;;;;;;42.85;17.35;;;;;;;14.92;100.00;102038.00;5063544;28;20028;-68
2021/07/16 05:01:41;;;;;;;41.28;16.58;;;;;;;14.97;100.00;102041.59;5062689;28;20021;-69
2021/07/16 05:04:07;;;;;;;41.78;16.70;;;;;;;15.09;99.93;102042.53;5064507;28;20380;-71
2021/07/16 05:06:32;;;;;;;40.80;16.23;;;;;;;15.18;98.06;102049.69;5061292;28;20025;-66
2021/07/16 05:08:57;;;;;;;40.85;16.88;;;;;;;15.19;97.74;102047.03;5064309;28;20036;-71
2021/07/16 05:11:23;;;;;;;39.85;16.05;;;;;;;15.19;97.31;102052.34;5062136;28;20119;-70
2021/07/16 05:13:49;;;;;;;40.17;16.17;;;;;;;15.18;97.56;102049.69;5062750;28;20032;-69
2021/07/16 05:16:15;;;;;;;39.08;15.57;;;;;;;15.13;95.84;102050.53;5060288;28;20074;-63
2021/07/16 05:18:41;;;;;;;35.05;14.80;;;;;;;15.11;95.91;102051.41;5066368;28;20096;-65
2021/07/16 05:21:09;;;;;;;40.60;15.32;;;;;;;15.07;96.38;102055.84;5065157;28;20099;-64
2021/07/16 05:23:34;;;;;;;35.70;15.55;;;;;;;15.08;95.30;102060.28;5064552;28;20052;-62
2021/07/16 05:26:00;;;;;;;39.63;15.50;;;;;;;15.07;96.65;102054.94;5065004;28;20067;-64
2021/07/16 05:28:26;;;;;;;43.25;16.08;;;;;;;15.11;95.15;102059.41;5065168;28;20387;-63
2021/07/16 05:30:52;;;;;;;37.30;14.95;;;;;;;15.12;94.08;102059.41;5063955;28;20036;-63
2021/07/16 05:33:18;;;;;;;41.28;15.48;;;;;;;15.16;94.32;102058.53;5065823;28;20041;-64
2021/07/16 05:35:44;;;;;;;37.83;14.75;;;;;;;15.22;92.90;102067.44;5065288;28;20060;-62
2021/07/16 05:38:10;;;;;;;37.92;14.30;;;;;;;15.19;92.80;102067.41;5065234;28;20052;-69
2021/07/16 05:40:37;;;;;;;37.10;14.10;;;;;;;15.24;91.96;102077.22;5069035;28;20099;-62
2021/07/16 05:43:06;;;;;;;39.70;15.00;;;;;;;15.21;92.32;102081.66;5064589;28;20031;-63
2021/07/16 05:45:31;;;;;;;39.53;15.00;;;;;;;15.24;89.89;102079.88;5064437;28;20016;-66
2021/07/16 05:47:59;;;;;;;36.83;13.40;;;;;;;15.25;90.23;102084.34;5063806;28;20021;-65
2021/07/16 05:50:25;;;;;;;38.03;14.27;;;;;;;15.35;89.62;102079.94;5062522;28;20566;-67
2021/07/16 05:52:50;;;;;;;38.25;14.38;;;;;;;15.46;89.15;102079.97;5067239;28;20115;-63
2021/07/16 05:55:16;;;;;;;36.67;13.85;;;;;;;15.47;88.36;102073.78;5065370;28;20048;-68
2021/07/16 05:57:41;;;;;;;36.15;13.48;;;;;;;15.50;87.89;102084.44;5064029;28;20051;-64
2021/07/16 06:00:07;;;;;;;41.35;13.77;;;;;;;15.51;90.59;102088.88;5062883;28;20110;-62
2021/07/16 06:02:32;;;;;;;37.20;13.35;;;;;;;15.55;86.73;102090.66;5064126;28;20029;-69
2021/07/16 06:04:58;;;;;;;37.75;13.77;;;;;;;15.57;89.56;102088.91;5065125;28;20032;-70
2021/07/16 06:07:23;;;;;;;33.38;13.20;;;;;;;15.59;86.58;102092.44;5064490;28;20051;-69
2021/07/16 06:09:48;;;;;;;37.35;13.52;;;;;;;15.57;87.55;102091.56;5060881;28;20111;-67
2021/07/16 06:12:14;;;;;;;32.83;12.98;;;;;;;15.65;88.10;102081.84;5066917;28;20032;-72
2021/07/16 06:14:40;;;;;;;33.80;12.57;;;;;;;15.63;87.14;102086.25;5066067;28;20055;-69
2021/07/16 06:17:05;;;;;;;36.55;13.30;;;;;;;15.62;86.37;102086.25;5064646;28;20020;-68
2021/07/16 06:19:30;;;;;;;39.42;13.70;;;;;;;15.61;88.78;102087.13;5066940;28;20025;-69
2021/07/16 06:21:55;;;;;;;37.38;13.32;;;;;;;15.66;89.44;102098.69;5065547;28;20074;-71
2021/07/16 06:24:21;;;;;;;37.08;13.52;;;;;;;15.61;88.26;102101.34;5064716;28;20455;-68
2021/07/16 06:26:46;;;;;;;36.97;13.07;;;;;;;15.61;87.70;102101.34;5065051;28;20060;-70
2021/07/16 06:29:11;;;;;;;35.22;12.98;;;;;;;15.60;87.97;102104.91;5072541;28;20035;-64
2021/07/16 06:31:37;;;;;;;40.58;13.82;;;;;;;15.58;88.68;102106.69;5077300;28;20036;-62
2021/07/16 06:34:03;;;;;;;37.85;13.23;;;;;;;15.64;88.17;102104.03;5065003;28;20352;-63
2021/07/16 06:36:28;;;;;;;39.10;12.93;;;;;;;15.65;86.02;102100.50;5069435;28;20047;-65
2021/07/16 06:38:54;;;;;;;38.10;13.23;;;;;;;15.67;87.95;102105.81;5066723;28;20021;-65
2021/07/16 06:41:19;;;;;;;41.28;12.13;;;;;;;15.61;86.96;102108.44;5069349;28;20093;-62
2021/07/16 06:43:45;;;;;;;35.25;12.68;;;;;;;15.64;88.32;102111.13;5069090;28;20448;-65
2021/07/16 06:46:12;;;;;;;36.42;12.70;;;;;;;15.75;86.43;102105.84;5069261;28;20056;-64
2021/07/16 06:48:38;;;;;;;39.67;13.10;;;;;;;15.67;87.67;102100.50;5066443;28;20485;-62
2021/07/16 06:51:03;;;;;;;37.38;13.10;;;;;;;15.76;87.61;102096.97;5067723;28;20103;-63
2021/07/16 06:53:29;;;;;;;35.45;12.60;;;;;;;15.90;86.41;102097.00;5068193;28;20048;-63
2021/07/16 06:55:54;;;;;;;32.60;12.25;;;;;;;16.02;85.75;102105.06;5062489;28;20139;-62
2021/07/16 06:58:19;;;;;;;37.95;12.73;;;;;;;16.08;84.02;102099.72;5069441;28;20036;-63
2021/07/16 07:00:46;;;;;;;36.20;11.98;;;;;;;16.07;84.71;102105.06;5068408;28;20028;-62
2021/07/16 07:03:11;;;;;;;38.40;12.45;;;;;;;16.32;83.71;102111.28;5067179;28;20103;-63
2021/07/16 07:05:36;;;;;;;35.95;12.50;;;;;;;16.59;82.27;102110.41;5067091;28;20104;-63
2021/07/16 07:08:03;;;;;;;34.67;11.43;;;;;;;16.89;81.25;102113.94;5066050;28;20032;-62
2021/07/16 07:10:28;;;;;;;33.13;11.45;;;;;;;17.14;79.07;102117.47;5065323;28;20064;-63
2021/07/16 07:12:53;;;;;;;34.90;11.95;;;;;;;17.18;79.26;102113.91;5067075;28;20063;-63
2021/07/16 07:15:19;;;;;;;35.13;11.27;;;;;;;17.08;76.71;102120.13;5067333;28;20032;-63
2021/07/16 07:17:45;;;;;;;30.02;10.73;;;;;;;16.95;79.00;102124.66;5064357;28;20024;-63
2021/07/16 07:20:11;;;;;;;32.50;10.75;;;;;;;16.93;78.81;102123.75;5068700;28;20081;-62
2021/07/16 07:22:37;;;;;;;34.67;11.10;;;;;;;16.88;78.04;102117.53;5064123;28;20099;-62
2021/07/16 07:25:03;;;;;;;35.65;11.00;;;;;;;16.85;79.97;102129.06;5063352;28;20111;-62
2021/07/16 07:27:30;;;;;;;33.40;10.50;;;;;;;16.81;77.89;102126.41;5071811;28;20036;-62
2021/07/16 07:29:55;;;;;;;33.47;10.90;;;;;;;16.81;78.34;102119.28;5070174;28;20021;-62
2021/07/16 07:32:21;;;;;;;32.78;10.32;;;;;;;16.86;78.66;102130.84;5070917;28;20600;-62
2021/07/16 07:34:46;;;;;;;32.15;10.30;;;;;;;16.82;76.72;102117.50;5065170;28;20028;-62
2021/07/16 07:37:11;;;;;;;35.83;11.15;;;;;;;16.71;78.31;102130.88;5067769;28;20040;-62
2021/07/16 07:39:37;;;;;;;37.13;11.05;;;;;;;16.78;79.26;102131.75;5065465;28;20430;-62
2021/07/16 07:42:03;;;;;;;34.70;10.88;;;;;;;16.69;78.81;102138.88;5067117;28;20017;-61
2021/07/16 07:44:28;;;;;;;35.05;11.27;;;;;;;16.77;78.15;102140.66;5061235;28;20025;-61
2021/07/16 07:46:54;;;;;;;36.03;11.02;;;;;;;16.76;78.85;102141.53;5068059;28;20028;-62
2021/07/16 07:49:19;;;;;;;35.45;11.32;;;;;;;16.78;80.13;102137.09;5042127;28;20028;-61
2021/07/16 07:51:44;;;;;;;36.88;10.85;;;;;;;16.83;79.11;102143.31;5066533;28;20028;-62
2021/07/16 07:54:10;;;;;;;35.33;11.05;;;;;;;16.95;78.42;102151.34;5062566;28;20483;-61
2021/07/16 07:56:39;;;;;;;33.83;10.13;;;;;;;16.95;77.29;102143.34;5065622;28;20036;-62
2021/07/16 07:59:06;;;;;;;35.83;11.13;;;;;;;16.94;78.24;102138.00;5066195;28;20029;-62
2021/07/16 08:01:33;;;;;;;33.30;10.25;;;;;;;16.95;78.46;102154.03;5068246;28;20524;-62
2021/07/16 08:03:59;;;;;;;36.75;10.65;;;;;;;17.11;78.06;102151.31;5067574;28;20021;-62
2021/07/16 08:06:25;;;;;;;32.25;10.38;;;;;;;17.21;75.98;102153.06;5065292;28;20636;-62
2021/07/16 08:08:51;;;;;;;33.28;10.20;;;;;;;17.34;77.77;102148.56;5070260;28;20110;-62
2021/07/16 08:11:16;;;;;;;32.03;10.48;;;;;;;17.49;75.91;102150.28;5068782;28;20089;-62
2021/07/16 08:13:42;;;;;;;34.50;10.50;;;;;;;17.78;74.99;102159.09;5047781;28;20487;-63
2021/07/16 08:16:07;;;;;;;32.97;9.65;;;;;;;18.23;73.36;102153.53;5065443;28;20020;-62
2021/07/16 08:18:32;;;;;;;34.70;10.10;;;;;;;18.49;72.46;102160.44;5063989;28;20467;-62
2021/07/16 08:20:59;;;;;;;34.55;10.00;;;;;;;18.58;72.09;102170.19;5064619;28;20036;-62
2021/07/16 08:23:24;;;;;;;31.92;9.45;;;;;;;18.49;71.06;102163.13;5066900;28;20021;-62
2021/07/16 08:25:49;;;;;;;32.13;9.65;;;;;;;18.38;71.84;102167.69;5069465;28;20032;-62
2021/07/16 08:28:15;;;;;;;35.10;10.23;;;;;;;18.18;71.65;102159.81;5063373;28;20100;-62
2021/07/16 08:30:40;;;;;;;33.95;9.65;;;;;;;17.84;73.31;102166.19;5065018;28;20039;-67
2021/07/16 08:33:06;;;;;;;36.58;10.10;;;;;;;17.63;73.88;102172.53;5064726;28;20024;-72
2021/07/16 08:35:31;;;;;;;36.33;9.85;;;;;;;17.62;74.02;102161.84;5064734;28;20024;-64
2021/07/16 08:37:57;;;;;;;36.15;9.93;;;;;;;17.60;73.91;102168.09;5064932;28;20017;-62
2021/07/16 08:40:23;;;;;;;35.40;9.93;;;;;;;17.70;73.48;102162.69;5067647;28;20021;-63
2021/07/16 08:42:49;;;;;;;37.67;10.30;;;;;;;17.73;74.35;102168.91;5065052;28;20043;-62
2021/07/16 08:45:15;;;;;;;33.65;9.80;;;;;;;18.03;73.51;102167.03;5063444;28;20025;-62
2021/07/16 08:47:40;;;;;;;33.22;10.00;;;;;;;18.37;70.59;102172.16;5063167;28;20039;-62
2021/07/16 08:50:09;;;;;;;33.33;10.07;;;;;;;18.50;70.57;102169.41;5065658;28;20028;-74
2021/07/16 08:52:36;;;;;;;33.50;9.57;;;;;;;18.54;70.80;102179.19;5066429;28;20036;-65
2021/07/16 08:55:02;;;;;;;37.47;10.05;;;;;;;18.49;70.59;102186.34;5064927;28;20075;-62
2021/07/16 08:57:29;;;;;;;35.65;9.70;;;;;;;18.41;71.04;102183.75;5063124;28;20388;-62
2021/07/16 08:59:54;;;;;;;32.30;9.55;;;;;;;18.29;70.97;102187.38;5065797;28;20056;-64
2021/07/16 09:02:25;;;;;;;34.60;9.73;;;;;;;18.33;70.13;102194.47;5067111;28;20137;-62
2021/07/16 09:05:00;;;;;;;35.33;9.90;;;;;;;18.28;72.12;102197.19;5048359;28;20027;-63
2021/07/16 09:07:26;;;;;;;31.73;9.45;;;;;;;18.17;70.94;102190.13;5068370;28;20155;-64
2021/07/16 09:10:09;;;;;;;36.03;9.70;;;;;;;18.00;71.95;102188.44;5064303;28;20056;-64
2021/07/16 09:12:36;;;;;;;33.80;10.15;;;;;;;17.75;71.27;102192.97;5064996;28;20036;-64
2021/07/16 09:15:14;;;;;;;37.38;10.07;;;;;;;17.61;74.46;102190.38;5065541;28;20086;-64
2021/07/16 09:17:43;;;;;;;33.53;9.98;;;;;;;17.53;72.82;102187.72;5061766;28;20159;-64
2021/07/16 09:20:10;;;;;;;33.17;10.13;;;;;;;17.41;73.23;102188.63;5062413;28;20083;-64
2021/07/16 09:22:36;;;;;;;35.05;10.30;;;;;;;17.13;76.63;102194.97;5065304;28;20084;-62
2021/07/16 09:25:05;;;;;;;38.40;10.45;;;;;;;17.23;75.85;102189.56;5064976;28;20105;-63
2021/07/16 09:27:31;;;;;;;37.70;10.63;;;;;;;17.45;76.12;102194.88;5066620;28;20028;-64
2021/07/16 09:30:13;;;;;;;36.90;10.45;;;;;;;17.69;75.42;102201.94;5066247;28;20483;-63
2021/07/16 09:32:41;;;;;;;32.63;10.38;;;;;;;17.74;74.12;102202.78;5065124;28;20028;-63
2021/07/16 09:35:06;;;;;;;34.60;10.45;;;;;;;17.82;73.19;102196.53;5060427;28;20350;-63
2021/07/16 09:37:32;;;;;;;36.10;10.75;;;;;;;18.07;72.46;102202.66;5064019;28;20078;-63
2021/07/16 09:39:58;;;;;;;36.72;10.60;;;;;;;18.37;71.77;102209.63;5060943;28;20374;-63
2021/07/16 09:42:24;;;;;;;37.03;9.98;;;;;;;18.36;70.35;102206.97;5062754;28;20453;-63
2021/07/16 09:44:58;;;;;;;36.38;10.25;;;;;;;18.28;71.16;102215.03;5062145;28;20055;-62
2021/07/16 09:47:23;;;;;;;38.05;10.20;;;;;;;18.36;70.92;102212.31;5062304;28;20031;-63
2021/07/16 09:50:05;;;;;;;31.67;9.63;;;;;;;18.52;70.91;102213.97;5062168;28;20024;-63
2021/07/16 09:52:31;;;;;;;37.22;10.70;;;;;;;18.46;69.18;102206.91;5063883;28;20410;-63
2021/07/16 09:55:18;;;;;;;34.30;10.20;;;;;;;18.57;71.84;102208.59;5061587;28;20081;-62
2021/07/16 09:57:43;;;;;;;37.80;10.82;;;;;;;18.46;70.32;102208.66;5061395;28;20045;-64
2021/07/16 10:00:23;;;;;;;34.97;10.20;;;;;;;18.38;71.32;102216.75;5063874;28;20043;-62
2021/07/16 10:02:56;;;;;;;35.95;10.50;;;;;;;18.36;71.31;102209.63;5062217;28;20452;-62
2021/07/16 10:05:23;;;;;;;34.42;10.23;;;;;;;18.41;71.63;102210.50;5061831;28;20032;-63
2021/07/16 10:07:48;;;;;;;39.70;10.93;;;;;;;18.26;69.21;102212.38;5062056;28;20029;-63
2021/07/16 10:10:16;;;;;;;34.80;10.23;;;;;;;18.22;70.38;102217.75;5065658;28;20020;-63
2021/07/16 10:12:43;;;;;;;35.00;10.70;;;;;;;18.35;70.14;102213.19;5064776;28;20356;-63
2021/07/16 10:15:13;;;;;;;37.92;10.90;;;;;;;18.51;70.24;102222.94;5068067;28;20032;-63
2021/07/16 10:17:39;;;;;;;35.22;10.27;;;;;;;18.62;68.24;102214.81;5064503;28;20025;-63
2021/07/16 10:20:17;;;;;;;35.83;10.88;;;;;;;18.88;69.30;102229.81;5068098;28;20032;-62
2021/07/16 10:22:44;;;;;;;35.70;10.82;;;;;;;18.84;68.29;102226.22;5065089;28;20029;-63
2021/07/16 10:25:11;;;;;;;33.65;10.32;;;;;;;18.97;68.34;102227.06;5073786;28;20025;-63
2021/07/16 10:27:41;;;;;;;33.17;10.48;;;;;;;19.12;68.04;102221.56;5081262;28;20411;-62
2021/07/16 10:30:15;;;;;;;34.35;10.80;;;;;;;19.23;66.65;102226.81;5064254;28;20442;-62
2021/07/16 10:32:52;;;;;;;32.38;10.35;;;;;;;19.11;67.35;102227.81;5060913;28;20029;-62
2021/07/16 10:35:36;;;;;;;34.33;10.85;;;;;;;18.79;67.41;102225.41;5068369;28;20090;-62
2021/07/16 10:38:05;;;;;;;38.65;11.10;;;;;;;18.24;70.10;102230.22;5066290;28;20078;-62
2021/07/16 10:40:43;;;;;;;35.83;11.32;;;;;;;18.20;70.48;102232.94;5069146;28;20387;-62
2021/07/16 10:43:28;;;;;;;37.13;11.38;;;;;;;17.96;71.23;102234.84;5067091;28;20036;-61
2021/07/16 10:45:58;;;;;;;40.08;11.57;;;;;;;17.76;72.41;102232.19;5068752;28;20028;-62
2021/07/16 10:48:33;;;;;;;39.40;12.13;;;;;;;17.68;72.89;102239.34;5066883;28;20016;-62
2021/07/16 10:51:00;;;;;;;37.33;12.15;;;;;;;17.77;73.14;102250.91;5066960;28;20033;-62
2021/07/16 10:53:28;;;;;;;41.75;12.73;;;;;;;17.72;75.71;102255.41;5067050;28;20036;-62
2021/07/16 10:55:56;;;;;;;37.33;12.55;;;;;;;17.72;76.06;102262.50;5066706;28;20025;-62
2021/07/16 10:58:26;;;;;;;37.92;12.60;;;;;;;17.67;76.44;102275.91;5068792;28;20416;-62
2021/07/16 11:00:55;;;;;;;38.83;12.57;;;;;;;17.69;76.45;102274.13;5068490;28;20025;-63
2021/07/16 11:03:35;;;;;;;38.67;13.05;;;;;;;17.90;78.80;102267.84;5067914;28;20035;-63
2021/07/16 11:06:00;;;;;;;35.97;12.48;;;;;;;18.03;77.50;102262.47;5068751;28;20024;-64